Time;durP1;ratioP1;P1;durP2;ratioP2;P2;SDS_P1;SDS_P2;PMS_P1;PMS_P2;Temp;Humidity;BMP_temperature;BMP_pressure;BME280_temperature;BME280_humidity;BME280_pressure;Samples;Min_cycle;Max_cycle;Signal;HPM_P1;HPM_P2
2023/05/11 00:01:07;;;;;;;2.00;1.20;;;12.60;80.00;;;15.64;49.69;97412.69;4975342;28;20043;-47
2023/05/11 00:03:35;;;;;;;3.72;0.93;;;12.60;80.10;;;15.63;49.83;97413.72;4975111;28;20049;-46
2023/05/11 00:06:03;;;;;;;1.05;0.93;;;12.60;80.10;;;15.65;49.72;97416.22;4974624;28;20058;-45
2023/05/11 00:08:30;;;;;;;3.20;1.00;;;12.70;80.10;;;15.69;49.81;97414.78;4974840;28;20162;-45
2023/05/11 00:11:01;;;;;;;1.23;0.90;;;12.70;80.10;;;15.69;49.80;97412.09;4975185;28;20042;-45
2023/05/11 00:13:29;;;;;;;2.92;0.90;;;12.70;80.10;;;15.71;49.60;97412.72;4973861;28;20505;-47
2023/05/11 00:15:57;;;;;;;1.42;0.80;;;12.70;80.20;;;15.67;49.73;97414.97;4974911;28;20490;-46
2023/05/11 00:18:24;;;;;;;4.00;0.95;;;12.60;80.20;;;15.70;49.61;97409.22;4974634;28;20491;-45
2023/05/11 00:20:53;;;;;;;2.72;1.00;;;12.70;80.30;;;15.69;49.66;97415.59;4973756;28;20038;-45
2023/05/11 00:23:20;;;;;;;1.20;1.00;;;12.70;80.40;;;15.71;49.82;97415.41;4974961;28;20042;-46
2023/05/11 00:25:48;;;;;;;1.93;1.10;;;12.70;80.30;;;15.75;49.65;97411.31;4974631;28;20051;-47
2023/05/11 00:28:15;;;;;;;1.48;1.10;;;12.80;80.10;;;15.77;49.72;97411.94;4974653;28;20047;-45
2023/05/11 00:30:44;;;;;;;1.00;0.80;;;12.80;80.00;;;15.81;49.62;97413.19;4974700;28;20042;-45
2023/05/11 00:33:11;;;;;;;2.33;1.52;;;12.80;79.90;;;15.78;49.62;97413.63;4974827;28;20043;-46
2023/05/11 00:35:39;;;;;;;1.52;1.42;;;12.70;79.90;;;15.74;49.61;97410.50;4973097;28;20418;-45
2023/05/11 00:38:06;;;;;;;0.80;0.77;;;12.70;80.30;;;15.74;49.61;97405.13;4973869;28;20042;-45
2023/05/11 00:40:34;;;;;;;2.60;0.98;;;12.70;80.40;;;15.71;49.84;97408.19;4974316;28;20047;-48
2023/05/11 00:43:02;;;;;;;2.08;0.98;;;12.70;80.30;;;15.74;49.89;97404.28;4956544;28;20039;-46
2023/05/11 00:45:29;;;;;;;1.13;1.02;;;12.70;80.70;;;15.74;49.90;97397.09;4974289;28;20292;-47
2023/05/11 00:47:57;;;;;;;1.65;0.70;;;12.70;80.60;;;15.75;49.77;97395.22;4972471;28;20058;-45
2023/05/11 00:50:26;;;;;;;0.63;0.63;;;12.70;80.40;;;15.73;49.84;97395.41;4956501;28;20047;-47
2023/05/11 00:52:56;;;;;;;2.42;0.98;;;12.70;80.70;;;15.75;49.92;97389.84;4956310;28;20346;-45
2023/05/11 00:55:25;;;;;;;0.98;0.90;;;12.80;80.80;;;15.78;49.85;97407.41;4973954;28;20054;-45
2023/05/11 00:57:52;;;;;;;1.50;1.15;;;12.80;80.70;;;15.75;49.82;97393.34;4972518;28;20503;-48
2023/05/11 01:00:20;;;;;;;1.65;1.23;;;12.80;81.00;;;15.75;50.20;97404.09;4956627;28;20406;-45
2023/05/11 01:02:48;;;;;;;1.85;0.90;;;12.80;81.00;;;15.71;50.19;97400.13;4974059;28;20039;-44
2023/05/11 01:05:16;;;;;;;2.10;0.90;;;12.70;81.30;;;15.73;50.29;97399.97;4974052;28;20047;-46
2023/05/11 01:08:05;;;;;;;2.13;0.75;;;12.70;81.50;;;15.70;50.07;97390.44;4973765;28;20051;-44
2023/05/11 01:11:20;;;;;;;2.20;1.00;;;12.70;82.00;;;15.64;50.40;97404.63;4956521;28;20058;-48
2023/05/11 01:14:15;;;;;;;3.03;1.10;;;12.60;82.60;;;15.67;50.38;97401.56;4973187;28;20042;-45
2023/05/11 01:16:48;;;;;;;1.00;0.80;;;12.60;82.30;;;15.64;50.59;97401.13;4956513;28;20043;-44
2023/05/11 01:19:55;;;;;;;1.15;1.05;;;12.60;82.90;;;15.59;50.59;97400.91;4964288;28;20069;-49
2023/05/11 01:23:03;;;;;;;2.50;1.13;;;12.60;82.90;;;15.58;50.52;97412.66;4956158;28;20047;-44
2023/05/11 01:26:07;;;;;;;1.27;1.13;;;12.50;83.60;;;15.56;50.75;97402.94;4949613;28;20065;-45
2023/05/11 01:29:05;;;;;;;2.33;1.13;;;12.60;84.10;;;15.61;50.70;97399.69;4961651;28;20047;-45
2023/05/11 01:31:34;;;;;;;0.98;0.93;;;12.60;84.10;;;15.59;50.64;97399.03;4955971;28;20425;-46
2023/05/11 01:34:06;;;;;;;2.63;1.10;;;12.60;84.30;;;15.60;51.05;97403.38;4956231;28;20039;-46
2023/05/11 01:36:41;;;;;;;1.40;0.80;;;12.60;84.00;;;15.64;51.10;97403.81;4971187;28;20055;-47
2023/05/11 01:39:11;;;;;;;1.40;1.10;;;12.70;84.20;;;15.54;51.09;97393.44;4955953;28;20049;-45
2023/05/11 01:41:44;;;;;;;2.13;1.13;;;12.50;84.80;;;15.55;51.17;97398.63;4956148;28;20058;-45
2023/05/11 01:44:15;;;;;;;1.83;1.10;;;12.50;85.30;;;15.58;51.02;97400.06;4956152;28;20054;-44
2023/05/11 01:46:43;;;;;;;1.40;0.95;;;12.60;85.30;;;15.58;51.36;97402.75;4955889;28;20422;-46
2023/05/11 01:49:12;;;;;;;2.00;1.20;;;12.50;85.30;;;15.43;51.59;97402.03;4955579;28;20047;-44
2023/05/11 01:51:42;;;;;;;1.00;0.90;;;12.50;85.80;;;15.47;51.60;97403.28;4955762;28;20058;-45
2023/05/11 01:54:11;;;;;;;1.52;1.10;;;12.40;86.50;;;15.42;51.54;97401.22;4971570;28;20046;-45
2023/05/11 01:56:42;;;;;;;1.73;1.38;;;12.40;86.90;;;15.45;51.65;97400.84;4971898;28;20047;-46
2023/05/11 01:59:11;;;;;;;1.55;1.10;;;12.40;87.00;;;15.47;51.58;97401.47;4955829;28;20049;-46
2023/05/11 02:01:40;;;;;;;1.50;1.15;;;12.40;87.30;;;15.49;51.68;97401.25;4955631;28;20058;-46
2023/05/11 02:04:10;;;;;;;2.83;1.20;;;12.50;87.80;;;15.49;51.61;97404.78;4971791;28;20157;-45
2023/05/11 02:06:38;;;;;;;2.63;1.10;;;12.50;87.60;;;15.48;51.78;97402.28;4972742;28;20066;-47
2023/05/11 02:09:08;;;;;;;1.15;1.00;;;12.40;87.90;;;15.44;51.85;97396.47;4972927;28;20065;-47
2023/05/11 02:11:39;;;;;;;2.10;1.27;;;12.40;88.10;;;15.29;52.23;97396.59;4947568;28;20047;-47
2023/05/11 02:14:09;;;;;;;1.27;1.17;;;12.20;88.90;;;15.36;52.06;97393.97;4955668;28;20426;-46
2023/05/11 02:16:37;;;;;;;1.43;1.10;;;12.30;89.60;;;15.29;52.34;97401.13;4955544;28;20395;-47
2023/05/11 02:19:06;;;;;;;2.15;1.10;;;12.30;89.60;;;15.15;52.71;97395.69;4955280;28;20043;-46
2023/05/11 02:21:37;;;;;;;1.95;1.20;;;12.20;90.30;;;15.13;52.80;97397.75;4971665;28;20042;-45
2023/05/11 02:24:06;;;;;;;4.85;1.20;;;12.10;90.80;;;15.13;52.82;97400.41;4955179;28;20051;-46
2023/05/11 02:26:35;;;;;;;2.78;1.10;;;12.10;91.20;;;15.12;52.71;97404.16;4955285;28;20058;-46
2023/05/11 02:29:03;;;;;;;1.92;1.10;;;12.10;91.60;;;15.18;52.68;97412.41;4962839;28;20437;-44
2023/05/11 02:31:41;;;;;;;1.65;1.20;;;12.20;91.50;;;15.17;52.64;97408.91;4954679;28;20055;-46
2023/05/11 02:34:25;;;;;;;2.28;1.30;;;12.20;91.30;;;15.21;52.78;97406.66;4955129;28;20050;-45
2023/05/11 02:36:59;;;;;;;1.52;1.27;;;12.30;91.10;;;15.22;52.68;97402.94;4952414;28;20055;-46
2023/05/11 02:39:34;;;;;;;1.88;1.40;;;12.20;91.80;;;15.19;52.49;97403.34;4947036;28;20533;-45
2023/05/11 02:42:17;;;;;;;1.20;1.10;;;12.20;91.50;;;15.24;52.40;97400.91;4972759;28;20041;-46
2023/05/11 02:44:57;;;;;;;2.72;1.40;;;12.20;91.50;;;15.25;52.52;97398.03;4955679;28;20533;-45
2023/05/11 02:47:30;;;;;;;2.53;1.27;;;12.30;91.40;;;15.20;52.95;97403.16;4954702;28;20411;-43
2023/05/11 02:50:03;;;;;;;2.10;1.10;;;12.20;91.70;;;15.25;52.42;97398.03;4954652;28;20057;-45
2023/05/11 02:52:35;;;;;;;1.80;1.25;;;12.20;92.00;;;15.20;52.78;97399.63;4955314;28;20062;-45
2023/05/11 02:55:04;;;;;;;3.38;1.23;;;12.10;92.50;;;15.19;52.80;97401.50;4962634;28;20050;-47
2023/05/11 02:57:32;;;;;;;1.25;1.15;;;12.10;92.50;;;15.19;52.69;97398.00;4970618;28;20046;-47
2023/05/11 03:00:05;;;;;;;2.03;1.85;;;12.10;92.70;;;15.23;52.71;97401.94;4958142;28;20050;-46
2023/05/11 03:02:33;;;;;;;1.80;1.38;;;12.10;93.00;;;15.27;52.66;97397.84;4974659;28;20043;-46
2023/05/11 03:05:01;;;;;;;2.08;1.23;;;12.30;92.60;;;15.28;52.52;97403.00;4967011;28;20042;-47
2023/05/11 03:07:31;;;;;;;2.25;1.15;;;12.30;92.00;;;15.29;52.52;97393.09;4957656;28;20042;-45
2023/05/11 03:10:01;;;;;;;3.10;1.43;;;12.20;91.80;;;15.31;52.31;97399.09;4975887;28;20538;-45
2023/05/11 03:12:34;;;;;;;4.95;1.45;;;12.30;91.70;;;15.31;52.43;97402.59;4958733;28;20412;-47
2023/05/11 03:15:03;;;;;;;2.07;1.10;;;12.30;91.80;;;15.24;52.56;97401.75;4975158;28;20380;-47
2023/05/11 03:17:34;;;;;;;1.97;1.40;;;12.20;92.00;;;15.12;52.80;97398.78;4974707;28;20054;-46
2023/05/11 03:20:05;;;;;;;2.63;1.02;;;12.10;92.10;;;15.20;52.74;97399.63;4958521;28;20046;-45
2023/05/11 03:22:35;;;;;;;1.53;1.33;;;12.20;92.30;;;15.23;52.52;97397.38;4958079;28;20055;-45
2023/05/11 03:25:06;;;;;;;2.15;1.55;;;12.30;91.80;;;15.28;52.65;97394.97;4974823;28;20061;-45
2023/05/11 03:27:34;;;;;;;1.60;1.20;;;12.30;91.50;;;15.29;52.57;97393.91;4957884;28;20054;-45
2023/05/11 03:30:07;;;;;;;4.93;1.50;;;12.30;91.30;;;15.34;52.34;97393.34;4957986;28;20042;-46
2023/05/11 03:32:39;;;;;;;2.13;1.10;;;12.30;91.20;;;15.31;52.42;97383.81;4958393;28;20061;-45
2023/05/11 03:35:08;;;;;;;1.13;1.02;;;12.40;90.60;;;15.31;52.56;97383.00;4958623;28;20494;-45
2023/05/11 03:37:38;;;;;;;1.75;1.40;;;12.30;91.30;;;15.23;52.72;97389.34;4974408;28;20375;-46
2023/05/11 03:40:08;;;;;;;1.55;1.45;;;12.30;91.10;;;15.27;52.66;97384.41;4957595;28;20415;-45
2023/05/11 03:42:56;;;;;;;2.10;1.45;;;12.20;91.10;;;15.17;52.80;97382.09;4960518;28;20422;-46
2023/05/11 03:45:28;;;;;;;1.52;1.30;;;12.20;92.60;;;15.17;52.83;97387.47;4958244;28;20511;-48
2023/05/11 03:47:56;;;;;;;2.97;1.63;;;12.20;92.10;;;15.18;52.75;97382.91;4974089;28;20039;-44
2023/05/11 03:50:26;;;;;;;2.10;1.25;;;12.20;92.00;;;15.20;52.37;97381.72;4975541;28;20046;-46
2023/05/11 03:52:54;;;;;;;4.55;1.77;;;12.20;91.80;;;15.21;52.62;97388.72;4958094;28;20399;-47
2023/05/11 03:55:23;;;;;;;2.10;1.33;;;12.20;91.80;;;15.22;52.63;97385.03;4974233;28;20545;-45
2023/05/11 03:57:51;;;;;;;2.58;1.40;;;12.20;91.80;;;15.21;52.66;97385.22;4973139;28;20065;-47
2023/05/11 04:00:18;;;;;;;2.08;1.48;;;12.20;91.50;;;15.20;52.75;97379.03;4958016;28;20521;-45
2023/05/11 04:02:46;;;;;;;1.35;1.25;;;12.20;91.60;;;15.20;52.79;97378.19;4958243;28;20434;-45
2023/05/11 04:05:14;;;;;;;1.60;1.50;;;12.20;91.60;;;15.11;52.96;97378.34;4958157;28;20395;-46
2023/05/11 04:07:45;;;;;;;2.47;1.57;;;12.10;91.50;;;15.07;53.15;97379.75;4957497;28;20054;-44
2023/05/11 04:10:12;;;;;;;4.28;1.95;;;12.00;92.30;;;15.05;53.07;97384.50;4956766;28;20058;-47
2023/05/11 04:12:41;;;;;;;2.92;1.40;;;12.10;92.70;;;15.01;53.19;97377.06;4975476;28;20051;-45
2023/05/11 04:15:09;;;;;;;1.90;1.50;;;12.00;92.60;;;15.05;53.08;97378.31;4974425;28;20055;-46
2023/05/11 04:17:37;;;;;;;2.67;1.20;;;12.10;92.70;;;15.03;53.11;97378.50;4974939;28;20054;-45
2023/05/11 04:20:07;;;;;;;2.17;1.50;;;12.10;92.40;;;15.07;53.07;97377.09;4957680;28;20050;-44
2023/05/11 04:22:35;;;;;;;2.20;1.42;;;12.10;92.50;;;15.07;52.97;97377.09;4957363;28;20047;-45
2023/05/11 04:25:03;;;;;;;2.80;1.52;;;12.10;92.70;;;15.05;52.95;97376.44;4957403;28;20057;-44
2023/05/11 04:27:33;;;;;;;2.33;1.88;;;12.10;92.70;;;15.09;53.18;97375.03;4973407;28;20062;-45
2023/05/11 04:30:01;;;;;;;3.50;1.52;;;12.10;93.00;;;15.17;53.04;97371.38;4974740;28;20047;-44
2023/05/11 04:32:29;;;;;;;1.63;1.52;;;12.20;92.80;;;15.19;52.95;97377.38;4957584;28;20050;-45
2023/05/11 04:34:58;;;;;;;2.55;1.50;;;12.20;92.00;;;15.17;52.99;97376.72;4973404;28;20047;-44
2023/05/11 04:37:28;;;;;;;1.83;1.48;;;12.20;92.10;;;15.15;53.02;97371.56;4972218;28;20046;-45
2023/05/11 04:39:57;;;;;;;3.55;1.85;;;12.20;92.30;;;15.12;53.12;97379.16;4956805;28;20045;-45
2023/05/11 04:42:24;;;;;;;2.43;1.93;;;12.20;92.60;;;14.87;53.76;97379.63;4957094;28;20042;-44
2023/05/11 04:44:54;;;;;;;3.72;2.00;;;12.00;93.10;;;14.87;53.67;97378.78;4956600;28;20211;-44
2023/05/11 04:47:22;;;;;;;4.10;1.88;;;11.90;94.40;;;14.84;53.91;97382.69;4973588;28;20502;-46
2023/05/11 04:49:50;;;;;;;3.33;2.08;;;11.90;94.60;;;14.85;53.89;97383.50;4974152;28;20051;-45
2023/05/11 04:52:18;;;;;;;5.13;2.30;;;11.80;95.50;;;14.86;53.81;97379.81;4956984;28;20424;-46
2023/05/11 04:54:48;;;;;;;1.70;1.27;;;11.90;96.10;;;14.87;53.87;97387.69;4973346;28;20051;-45
2023/05/11 04:57:16;;;;;;;3.17;1.75;;;11.90;95.50;;;14.98;53.63;97380.94;4974120;28;20111;-48
2023/05/11 04:59:46;;;;;;;2.17;1.80;;;12.00;95.10;;;15.05;53.62;97384.50;4948716;28;20057;-47
2023/05/11 05:02:13;;;;;;;2.90;1.60;;;12.10;95.00;;;15.08;53.60;97381.44;4956581;28;20059;-46
2023/05/11 05:04:41;;;;;;;1.90;1.50;;;12.10;94.30;;;15.11;53.46;97383.69;4973954;28;20046;-45
2023/05/11 05:07:09;;;;;;;3.23;2.43;;;12.20;93.90;;;15.11;53.50;97390.94;4974127;28;20415;-46
2023/05/11 05:09:36;;;;;;;4.10;1.77;;;12.20;94.20;;;15.18;53.38;97386.44;4956483;28;20058;-46
2023/05/11 05:12:04;;;;;;;2.92;1.50;;;12.20;94.40;;;15.22;53.23;97385.03;4972412;28;20623;-45
2023/05/11 05:14:32;;;;;;;2.95;1.88;;;12.30;93.70;;;15.23;53.30;97389.34;4972520;28;20073;-48
2023/05/11 05:17:00;;;;;;;4.38;1.63;;;12.30;93.20;;;15.25;53.26;97389.97;4980790;28;20030;-38
2023/05/11 05:19:29;;;;;;;2.58;1.80;;;12.30;93.80;;;15.30;53.24;97390.22;4957542;28;20042;-37
2023/05/11 05:21:57;;;;;;;2.90;2.10;;;12.40;93.50;;;15.28;53.26;97391.47;4973460;28;20442;-37
2023/05/11 05:24:25;;;;;;;2.85;1.50;;;12.30;93.40;;;15.16;53.35;97388.50;4974025;28;20195;-37
2023/05/11 05:26:52;;;;;;;3.10;1.85;;;12.20;93.80;;;15.04;53.87;97398.09;4973723;28;20042;-37
2023/05/11 05:29:20;;;;;;;1.70;1.50;;;12.10;94.30;;;15.00;53.74;97394.16;4955997;28;20051;-37
2023/05/11 05:31:48;;;;;;;3.47;1.80;;;12.00;95.00;;;15.05;53.69;97389.84;4956367;28;20537;-37
2023/05/11 05:34:17;;;;;;;1.65;1.40;;;12.10;95.20;;;14.95;54.00;97402.78;4964259;28;20057;-37
2023/05/11 05:36:45;;;;;;;2.15;1.70;;;12.10;94.80;;;14.89;54.14;97399.03;4952401;28;20051;-37
2023/05/11 05:39:13;;;;;;;1.83;1.60;;;12.00;95.30;;;14.98;53.97;97396.19;4973734;28;20043;-37
2023/05/11 05:41:41;;;;;;;4.23;1.80;;;12.00;95.70;;;15.02;53.96;97403.63;4963922;28;20051;-37
2023/05/11 05:44:10;;;;;;;1.80;1.45;;;12.00;96.20;;;15.06;53.92;97401.41;4972238;28;20050;-37
2023/05/11 05:46:38;;;;;;;2.43;1.77;;;12.10;96.40;;;15.11;53.88;97409.69;4955747;28;20533;-37
2023/05/11 05:49:06;;;;;;;1.70;1.37;;;12.20;96.30;;;15.03;54.29;97404.50;4955827;28;20050;-37
2023/05/11 05:51:36;;;;;;;2.78;1.70;;;12.10;96.50;;;14.99;54.40;97408.59;4955882;28;20057;-37
2023/05/11 05:54:04;;;;;;;4.40;1.93;;;12.10;96.80;;;15.07;54.22;97409.25;4964883;28;20407;-37
2023/05/11 05:56:33;;;;;;;2.78;2.15;;;12.10;97.80;;;15.20;54.03;97399.63;4955216;28;20070;-37
2023/05/11 05:59:01;;;;;;;2.92;2.00;;;12.20;97.30;;;15.18;54.04;97409.72;4972613;28;20526;-37
2023/05/11 06:01:29;;;;;;;2.67;1.90;;;12.30;97.20;;;15.16;54.06;97401.91;4963748;28;20502;-38
2023/05/11 06:03:57;;;;;;;2.92;1.90;;;12.20;96.80;;;15.16;54.20;97401.91;4955524;28;20061;-37
2023/05/11 06:06:26;;;;;;;2.75;2.03;;;12.20;97.20;;;15.25;54.02;97410.59;4963474;28;20447;-37
2023/05/11 06:08:53;;;;;;;3.55;2.05;;;12.30;97.10;;;15.22;54.14;97405.63;4955177;28;20066;-37
2023/05/11 06:11:21;;;;;;;2.67;2.13;;;12.20;95.90;;;15.15;54.31;97414.47;4947139;28;20051;-37
2023/05/11 06:13:50;;;;;;;3.70;2.10;;;12.30;96.50;;;15.25;54.05;97416.78;4940401;28;20404;-46
2023/05/11 06:16:19;;;;;;;2.78;2.05;;;12.30;96.00;;;15.23;54.12;97409.97;4955259;28;20050;-46
2023/05/11 06:18:47;;;;;;;2.50;2.15;;;12.30;95.70;;;15.31;53.87;97409.81;4972658;28;20047;-45
2023/05/11 06:21:15;;;;;;;3.20;2.40;;;12.40;96.90;;;15.43;54.01;97412.78;4955812;28;20114;-46
2023/05/11 06:23:43;;;;;;;4.13;2.42;;;12.50;96.60;;;15.41;53.97;97407.63;4955384;28;20073;-46
2023/05/11 06:26:11;;;;;;;2.63;1.90;;;12.50;96.30;;;15.47;54.02;97409.50;4971314;28;20419;-45
2023/05/11 06:28:39;;;;;;;3.05;2.20;;;12.50;95.70;;;15.51;53.75;97412.63;4954391;28;20131;-46
2023/05/11 06:31:12;;;;;;;3.45;2.40;;;12.50;95.00;;;15.53;53.66;97413.25;4955395;28;20050;-45
2023/05/11 06:33:41;;;;;;;3.53;2.25;;;12.50;96.00;;;15.58;53.46;97407.28;4971870;28;20050;-47
2023/05/11 06:36:17;;;;;;;3.05;2.42;;;12.50;95.30;;;15.55;53.52;97413.88;4955369;28;20055;-46
2023/05/11 06:38:45;;;;;;;2.55;2.05;;;12.60;95.20;;;15.52;53.44;97416.97;4955274;28;20514;-45
2023/05/11 06:41:12;;;;;;;3.33;2.40;;;12.50;95.30;;;15.16;54.40;97416.13;4955317;28;20049;-46
2023/05/11 06:43:41;;;;;;;3.80;2.83;;;12.30;96.70;;;15.26;54.36;97406.91;4954315;28;20410;-49
2023/05/11 06:46:20;;;;;;;4.50;2.60;;;12.20;96.50;;;15.30;54.26;97413.53;4970780;28;20303;-45
2023/05/11 06:48:49;;;;;;;3.37;2.30;;;12.30;97.70;;;15.31;54.24;97410.63;4968815;28;20074;-45
2023/05/11 06:51:16;;;;;;;3.70;2.70;;;12.30;97.40;;;15.37;54.05;97411.69;4972648;28;20418;-47
2023/05/11 06:53:44;;;;;;;3.40;2.72;;;12.40;96.80;;;15.33;54.21;97419.34;4972266;28;20050;-46
2023/05/11 06:56:11;;;;;;;3.83;2.97;;;12.30;96.70;;;15.28;54.26;97416.41;4972917;28;20055;-46
2023/05/11 06:58:39;;;;;;;3.50;3.03;;;12.20;96.80;;;15.21;54.17;97418.22;4970527;28;20042;-45
2023/05/11 07:01:06;;;;;;;3.17;2.60;;;12.20;96.70;;;15.29;53.81;97418.06;4972594;28;20039;-46
2023/05/11 07:03:35;;;;;;;4.10;3.00;;;12.30;96.20;;;15.33;53.96;97415.81;4972574;28;20050;-46
2023/05/11 07:06:02;;;;;;;5.97;2.65;;;12.30;96.60;;;15.41;53.90;97412.16;4972059;28;20042;-45
2023/05/11 07:08:30;;;;;;;3.67;2.47;;;12.40;96.00;;;15.33;54.07;97424.72;4972233;28;20046;-45
2023/05/11 07:10:58;;;;;;;4.78;2.33;;;12.40;96.70;;;15.35;54.17;97419.97;4972324;28;20054;-48
2023/05/11 07:13:25;;;;;;;8.98;2.97;;;12.40;96.40;;;15.34;54.13;97422.84;4971003;28;20047;-47
2023/05/11 07:15:53;;;;;;;3.20;2.90;;;12.40;96.60;;;15.35;54.15;97421.81;4972239;28;20046;-47
2023/05/11 07:18:24;;;;;;;3.83;3.17;;;12.40;95.60;;;15.42;54.11;97425.38;4972144;28;20525;-47
2023/05/11 07:20:51;;;;;;;5.80;3.10;;;12.50;97.00;;;15.46;54.13;97425.81;4962840;28;20426;-45
2023/05/11 07:23:19;;;;;;;4.90;2.80;;;12.50;96.30;;;15.50;54.16;97427.06;4972002;28;20039;-46
2023/05/11 07:25:46;;;;;;;4.00;2.97;;;12.50;96.40;;;15.60;54.05;97430.19;4972133;28;20410;-45
2023/05/11 07:28:14;;;;;;;3.05;2.30;;;12.60;96.80;;;15.71;53.71;97434.19;4972067;28;20503;-45
2023/05/11 07:30:41;;;;;;;3.15;2.35;;;12.70;96.40;;;15.69;53.98;97431.69;4972215;28;20430;-45
2023/05/11 07:33:09;;;;;;;3.00;2.70;;;12.80;95.70;;;15.54;53.61;97437.19;4947442;28;20503;-45
2023/05/11 07:35:37;;;;;;;4.07;2.72;;;12.60;95.00;;;15.64;54.15;97427.97;4972378;28;20043;-46
2023/05/11 07:38:06;;;;;;;3.47;2.53;;;12.70;96.70;;;15.67;54.08;97427.56;4971715;28;20515;-45
2023/05/11 07:40:34;;;;;;;3.60;3.17;;;12.70;96.60;;;15.67;54.25;97436.44;4972105;28;20034;-45
2023/05/11 07:43:02;;;;;;;3.70;2.90;;;12.70;97.30;;;15.71;54.00;97439.56;4971455;28;20054;-44
2023/05/11 07:45:30;;;;;;;7.30;3.08;;;12.70;97.10;;;15.64;54.51;97433.31;4974100;28;20559;-46
2023/05/11 07:47:57;;;;;;;4.18;2.80;;;12.60;99.10;;;15.41;54.97;97431.78;4975325;28;20046;-46
2023/05/11 07:50:25;;;;;;;3.15;2.33;;;12.50;98.70;;;15.33;55.48;97432.75;4975688;28;20042;-46
2023/05/11 07:52:53;;;;;;;5.30;2.90;;;12.40;99.90;;;15.37;55.51;97433.16;4975421;28;20055;-47
2023/05/11 07:55:23;;;;;;;3.47;3.10;;;12.30;99.90;;;15.27;55.87;97438.06;4975584;28;20421;-49
2023/05/11 07:57:53;;;;;;;3.30;2.60;;;12.30;99.90;;;15.30;55.86;97438.50;4975181;28;20069;-47
2023/05/11 08:00:21;;;;;;;3.80;3.03;;;12.30;99.90;;;15.45;55.57;97433.03;4975509;28;20089;-48
2023/05/11 08:02:48;;;;;;;4.93;2.67;;;12.40;99.90;;;15.49;55.65;97436.97;4975256;28;20054;-48
2023/05/11 08:05:17;;;;;;;4.63;3.05;;;12.50;99.90;;;15.51;55.40;97432.22;4958428;28;20035;-48
2023/05/11 08:07:46;;;;;;;4.47;2.88;;;12.50;99.90;;;15.54;55.65;97436.38;4973951;28;20039;-47
2023/05/11 08:10:13;;;;;;;3.95;2.80;;;12.50;99.90;;;15.51;55.42;97432.22;4958015;28;20495;-47
2023/05/11 08:12:41;;;;;;;3.53;2.83;;;12.40;99.90;;;15.46;55.87;97436.53;4975336;28;20391;-47
2023/05/11 08:15:09;;;;;;;4.38;2.90;;;12.40;99.90;;;15.52;55.51;97425.81;4975176;28;20502;-47
2023/05/11 08:17:37;;;;;;;4.32;2.90;;;12.50;99.90;;;15.60;55.63;97432.88;4974960;28;20062;-45
2023/05/11 08:20:06;;;;;;;3.72;2.92;;;12.60;99.90;;;15.70;55.78;97430.69;4974748;28;20047;-46
2023/05/11 08:22:33;;;;;;;3.60;3.00;;;12.70;99.90;;;15.88;55.17;97438.22;4974905;28;20051;-47
2023/05/11 08:25:02;;;;;;;3.75;2.60;;;12.90;99.90;;;15.87;55.32;97433.88;4974940;28;20050;-47
2023/05/11 08:27:30;;;;;;;3.75;2.78;;;12.90;99.90;;;15.88;55.19;97440.09;4974979;28;20050;-47
2023/05/11 08:29:57;;;;;;;3.70;3.10;;;12.90;99.90;;;15.82;55.44;97443.56;4957388;28;20055;-47
2023/05/11 08:32:26;;;;;;;4.85;2.72;;;12.80;99.90;;;15.69;55.66;97434.38;4973771;28;20051;-46
2023/05/11 08:34:54;;;;;;;3.25;2.10;;;12.70;99.90;;;15.58;55.73;97440.31;4974887;28;20046;-46
2023/05/11 08:37:22;;;;;;;4.90;2.65;;;12.60;99.90;;;15.55;55.93;97446.09;4971602;28;20047;-46
2023/05/11 08:39:50;;;;;;;4.13;2.50;;;12.60;99.90;;;15.75;55.62;97443.53;4974055;28;20077;-46
2023/05/11 08:42:18;;;;;;;3.42;2.65;;;12.80;99.90;;;15.74;55.54;97439.19;4974607;28;20043;-47
2023/05/11 08:44:48;;;;;;;3.80;2.45;;;12.70;99.90;;;15.86;55.37;97444.84;4973590;28;20054;-46
2023/05/11 08:47:17;;;;;;;3.55;2.30;;;12.90;99.90;;;15.84;55.21;97444.19;4965370;28;20039;-47
2023/05/11 08:49:53;;;;;;;3.42;2.53;;;12.90;99.90;;;16.00;54.98;97443.84;4973221;28;20725;-45
2023/05/11 08:52:21;;;;;;;4.32;3.17;;;13.00;99.90;;;15.86;55.50;97439.47;4973075;28;20046;-47
2023/05/11 08:54:48;;;;;;;5.00;2.67;;;12.80;99.90;;;15.93;54.86;97440.31;4957223;28;20055;-48
2023/05/11 08:57:17;;;;;;;4.43;2.90;;;12.90;99.90;;;15.79;55.12;97447.47;4973555;28;20046;-48
2023/05/11 08:59:48;;;;;;;5.57;3.55;;;12.80;99.90;;;15.62;55.56;97438.88;4972626;28;20046;-44
2023/05/11 09:02:19;;;;;;;4.20;2.70;;;12.70;99.90;;;15.69;55.41;97434.38;4974467;28;20510;-45
2023/05/11 09:04:48;;;;;;;3.22;2.75;;;12.60;99.90;;;15.66;55.39;97445.50;4956363;28;20054;-45
2023/05/11 09:07:16;;;;;;;4.10;3.20;;;12.70;99.90;;;15.57;55.52;97449.41;4966488;28;20826;-44
2023/05/11 09:09:46;;;;;;;5.18;3.45;;;12.60;99.90;;;15.67;55.96;97441.00;4972503;28;20039;-44
2023/05/11 09:12:15;;;;;;;3.88;2.88;;;12.70;99.90;;;15.51;56.06;97445.66;4974268;28;20038;-47
2023/05/11 09:14:45;;;;;;;3.13;2.42;;;12.60;99.90;;;15.61;55.98;97445.28;4974218;28;20047;-45
2023/05/11 09:17:13;;;;;;;4.55;2.95;;;12.60;99.90;;;15.58;55.97;97443.00;4973908;28;20047;-46
2023/05/11 09:20:00;;;;;;;3.60;3.03;;;12.70;99.90;;;15.78;56.14;97439.59;4973659;28;20430;-46
2023/05/11 09:22:30;;;;;;;4.03;2.92;;;12.80;99.90;;;15.72;56.17;97441.19;4974169;28;20051;-45
2023/05/11 09:25:03;;;;;;;3.65;2.95;;;12.80;99.90;;;15.78;56.11;97445.84;4973824;28;20070;-45
2023/05/11 09:27:31;;;;;;;3.70;2.67;;;12.80;99.90;;;15.78;56.02;97443.16;4956338;28;20066;-46
2023/05/11 09:30:21;;;;;;;5.85;3.95;;;12.80;99.90;;;15.87;56.08;97441.09;4973244;28;20058;-45
2023/05/11 09:32:59;;;;;;;5.80;2.80;;;12.80;99.90;;;15.72;56.40;97444.72;4973719;28;20062;-45
2023/05/11 09:35:34;;;;;;;3.65;3.28;;;12.90;99.90;;;15.85;56.39;97443.97;4973683;28;20418;-45
2023/05/11 09:38:13;;;;;;;3.15;2.63;;;12.90;99.90;;;15.79;56.47;97439.41;4973507;28;20047;-49
2023/05/11 09:40:49;;;;;;;3.10;2.50;;;12.80;99.90;;;15.70;56.13;97438.75;4974095;28;20039;-46
2023/05/11 09:43:24;;;;;;;6.25;3.47;;;12.70;99.90;;;15.77;56.66;97446.03;4947788;28;20054;-48
2023/05/11 09:46:00;;;;;;;4.38;3.15;;;12.70;99.90;;;15.65;57.19;97437.69;4973241;28;20188;-46
2023/05/11 09:48:30;;;;;;;3.53;3.05;;;12.70;99.90;;;15.89;56.93;97439.88;4972042;28;20043;-44
2023/05/11 09:51:04;;;;;;;3.20;2.40;;;12.90;99.90;;;15.80;56.96;97437.56;4973472;28;20066;-46
2023/05/11 09:53:44;;;;;;;2.75;2.40;;;12.90;99.90;;;15.71;56.79;97439.56;4973383;28;20051;-48
2023/05/11 09:56:14;;;;;;;2.97;2.47;;;12.80;99.90;;;15.82;56.52;97439.03;4971871;28;20047;-46
2023/05/11 09:58:56;;;;;;;4.70;3.05;;;12.80;99.90;;;15.77;56.47;97443.34;4971633;28;20061;-46
2023/05/11 10:01:33;;;;;;;4.55;3.58;;;12.80;99.90;;;15.82;56.94;97440.88;4966220;28;20039;-45
2023/05/11 10:04:03;;;;;;;3.95;2.78;;;12.80;99.90;;;15.74;57.14;97445.41;4971804;28;20387;-45
2023/05/11 10:06:51;;;;;;;3.85;2.85;;;12.90;99.90;;;15.92;56.93;97446.72;4972128;28;20046;-46
2023/05/11 10:09:24;;;;;;;4.13;2.72;;;12.90;99.90;;;15.80;56.78;97446.47;4972481;28;20046;-45
2023/05/11 10:11:54;;;;;;;5.53;2.88;;;12.80;99.90;;;15.98;56.63;97447.78;4972023;28;20051;-46
2023/05/11 10:14:22;;;;;;;4.57;3.05;;;12.90;99.90;;;15.71;57.21;97448.44;4956093;28;20050;-45
2023/05/11 10:16:51;;;;;;;6.68;3.17;;;12.80;99.90;;;15.67;57.03;97441.00;4971988;28;20046;-46
2023/05/11 10:19:19;;;;;;;4.93;3.50;;;12.80;99.90;;;15.71;57.68;97443.06;4947969;28;20057;-45
2023/05/11 10:21:47;;;;;;;4.07;3.08;;;12.80;99.90;;;15.88;57.02;97445.47;4971466;28;20516;-44
2023/05/11 10:24:15;;;;;;;4.75;4.25;;;12.90;99.90;;;15.56;57.87;97440.50;4971743;28;20107;-44
2023/05/11 10:26:47;;;;;;;4.55;3.78;;;12.70;99.90;;;15.65;58.11;97438.50;4972774;28;20047;-45
2023/05/11 10:29:18;;;;;;;3.55;2.85;;;12.80;99.90;;;15.87;57.41;97438.41;4971231;28;20038;-45
2023/05/11 10:31:47;;;;;;;4.00;3.17;;;12.90;99.90;;;16.01;57.17;97444.66;4972871;28;20073;-48
2023/05/11 10:34:16;;;;;;;4.38;2.95;;;13.00;99.90;;;15.74;57.62;97442.72;4955492;28;20054;-44